sensor_id;sensor_type;location;lat;lon;timestamp;P1;durP1;ratioP1;P2;durP2;ratioP2
78187;SDS011;67456;41.872;21.602;2024-01-15T00:01:10;38.67;;;19.08;;
78187;SDS011;67456;41.872;21.602;2024-01-15T00:03:37;43.45;;;20.83;;
78187;SDS011;67456;41.872;21.602;2024-01-15T00:06:03;40.20;;;19.77;;
78187;SDS011;67456;41.872;21.602;2024-01-15T00:08:29;38.58;;;19.65;;
78187;SDS011;67456;41.872;21.602;2024-01-15T00:10:55;46.75;;;21.13;;
78187;SDS011;67456;41.872;21.602;2024-01-15T00:13:21;48.47;;;24.10;;
78187;SDS011;67456;41.872;21.602;2024-01-15T00:15:47;53.40;;;26.05;;
78187;SDS011;67456;41.872;21.602;2024-01-15T00:18:14;48.78;;;23.48;;
78187;SDS011;67456;41.872;21.602;2024-01-15T00:20:40;52.78;;;25.92;;
78187;SDS011;67456;41.872;21.602;2024-01-15T00:23:06;77.80;;;30.55;;
78187;SDS011;67456;41.872;21.602;2024-01-15T00:25:32;58.05;;;28.50;;
78187;SDS011;67456;41.872;21.602;2024-01-15T00:27:58;55.15;;;25.15;;
78187;SDS011;67456;41.872;21.602;2024-01-15T00:30:24;49.70;;;20.92;;
78187;SDS011;67456;41.872;21.602;2024-01-15T00:32:50;43.05;;;21.48;;
78187;SDS011;67456;41.872;21.602;2024-01-15T00:35:17;45.45;;;21.13;;
78187;SDS011;67456;41.872;21.602;2024-01-15T00:37:43;44.00;;;21.13;;
78187;SDS011;67456;41.872;21.602;2024-01-15T00:40:09;37.75;;;17.73;;
78187;SDS011;67456;41.872;21.602;2024-01-15T00:42:35;42.88;;;19.05;;
78187;SDS011;67456;41.872;21.602;2024-01-15T00:45:01;38.88;;;19.08;;
78187;SDS011;67456;41.872;21.602;2024-01-15T00:47:28;36.13;;;17.80;;
78187;SDS011;67456;41.872;21.602;2024-01-15T00:49:54;35.05;;;16.00;;
78187;SDS011;67456;41.872;21.602;2024-01-15T00:52:20;36.20;;;18.42;;
78187;SDS011;67456;41.872;21.602;2024-01-15T00:54:46;39.13;;;18.83;;
78187;SDS011;67456;41.872;21.602;2024-01-15T00:57:12;37.17;;;18.15;;
78187;SDS011;67456;41.872;21.602;2024-01-15T00:59:38;36.35;;;16.52;;
78187;SDS011;67456;41.872;21.602;2024-01-15T01:02:05;47.35;;;21.50;;
78187;SDS011;67456;41.872;21.602;2024-01-15T01:04:31;57.33;;;26.27;;
78187;SDS011;67456;41.872;21.602;2024-01-15T01:06:57;58.63;;;25.15;;
78187;SDS011;67456;41.872;21.602;2024-01-15T01:09:24;45.58;;;21.17;;
78187;SDS011;67456;41.872;21.602;2024-01-15T01:11:50;71.05;;;32.25;;
78187;SDS011;67456;41.872;21.602;2024-01-15T01:14:16;51.80;;;23.45;;
78187;SDS011;67456;41.872;21.602;2024-01-15T01:16:42;46.13;;;21.48;;
78187;SDS011;67456;41.872;21.602;2024-01-15T01:19:08;43.85;;;19.88;;
78187;SDS011;67456;41.872;21.602;2024-01-15T01:21:34;40.45;;;19.27;;
78187;SDS011;67456;41.872;21.602;2024-01-15T01:24:00;41.88;;;19.23;;
78187;SDS011;67456;41.872;21.602;2024-01-15T01:26:27;42.95;;;19.63;;
78187;SDS011;67456;41.872;21.602;2024-01-15T01:28:53;47.72;;;21.05;;
78187;SDS011;67456;41.872;21.602;2024-01-15T01:31:19;46.70;;;22.42;;
78187;SDS011;67456;41.872;21.602;2024-01-15T01:33:45;47.28;;;22.42;;
78187;SDS011;67456;41.872;21.602;2024-01-15T01:36:11;44.08;;;20.10;;
78187;SDS011;67456;41.872;21.602;2024-01-15T01:38:37;46.67;;;22.73;;
78187;SDS011;67456;41.872;21.602;2024-01-15T01:41:04;37.95;;;18.02;;
78187;SDS011;67456;41.872;21.602;2024-01-15T01:43:30;41.40;;;19.00;;
78187;SDS011;67456;41.872;21.602;2024-01-15T01:45:56;52.05;;;23.58;;
78187;SDS011;67456;41.872;21.602;2024-01-15T01:48:26;35.35;;;18.70;;
78187;SDS011;67456;41.872;21.602;2024-01-15T01:50:57;49.03;;;22.90;;
78187;SDS011;67456;41.872;21.602;2024-01-15T01:53:23;44.25;;;19.90;;
78187;SDS011;67456;41.872;21.602;2024-01-15T01:55:50;41.33;;;18.50;;
78187;SDS011;67456;41.872;21.602;2024-01-15T01:58:17;40.70;;;17.85;;
78187;SDS011;67456;41.872;21.602;2024-01-15T02:00:44;46.80;;;21.17;;
78187;SDS011;67456;41.872;21.602;2024-01-15T02:03:11;55.28;;;24.50;;
78187;SDS011;67456;41.872;21.602;2024-01-15T02:05:37;45.85;;;22.42;;
78187;SDS011;67456;41.872;21.602;2024-01-15T02:08:05;53.05;;;25.00;;
78187;SDS011;67456;41.872;21.602;2024-01-15T02:10:31;56.35;;;26.98;;
78187;SDS011;67456;41.872;21.602;2024-01-15T02:12:58;46.72;;;23.67;;
78187;SDS011;67456;41.872;21.602;2024-01-15T02:15:24;44.10;;;20.40;;
78187;SDS011;67456;41.872;21.602;2024-01-15T02:17:57;41.03;;;20.65;;
78187;SDS011;67456;41.872;21.602;2024-01-15T02:20:23;37.90;;;18.55;;
78187;SDS011;67456;41.872;21.602;2024-01-15T02:22:49;35.80;;;17.42;;
78187;SDS011;67456;41.872;21.602;2024-01-15T02:25:15;37.42;;;16.20;;
78187;SDS011;67456;41.872;21.602;2024-01-15T02:27:42;32.80;;;14.85;;
78187;SDS011;67456;41.872;21.602;2024-01-15T02:30:09;39.28;;;17.50;;
78187;SDS011;67456;41.872;21.602;2024-01-15T02:32:37;37.25;;;19.48;;
78187;SDS011;67456;41.872;21.602;2024-01-15T02:35:03;56.75;;;26.17;;
78187;SDS011;67456;41.872;21.602;2024-01-15T02:37:29;54.63;;;23.77;;
78187;SDS011;67456;41.872;21.602;2024-01-15T02:39:55;63.72;;;30.05;;
78187;SDS011;67456;41.872;21.602;2024-01-15T02:42:22;50.20;;;25.20;;
78187;SDS011;67456;41.872;21.602;2024-01-15T02:44:48;53.25;;;26.40;;
78187;SDS011;67456;41.872;21.602;2024-01-15T02:47:14;37.65;;;17.25;;
78187;SDS011;67456;41.872;21.602;2024-01-15T02:49:40;44.30;;;18.83;;
78187;SDS011;67456;41.872;21.602;2024-01-15T02:52:06;44.78;;;19.80;;
78187;SDS011;67456;41.872;21.602;2024-01-15T02:54:32;41.58;;;19.98;;
78187;SDS011;67456;41.872;21.602;2024-01-15T02:56:59;43.42;;;19.85;;
78187;SDS011;67456;41.872;21.602;2024-01-15T02:59:25;43.05;;;21.45;;
78187;SDS011;67456;41.872;21.602;2024-01-15T03:01:51;44.38;;;23.08;;
78187;SDS011;67456;41.872;21.602;2024-01-15T03:04:17;50.33;;;22.50;;
78187;SDS011;67456;41.872;21.602;2024-01-15T03:06:43;40.70;;;21.52;;
78187;SDS011;67456;41.872;21.602;2024-01-15T03:09:09;47.25;;;20.92;;
78187;SDS011;67456;41.872;21.602;2024-01-15T03:11:39;48.88;;;23.35;;
78187;SDS011;67456;41.872;21.602;2024-01-15T03:14:05;49.90;;;23.92;;
78187;SDS011;67456;41.872;21.602;2024-01-15T03:16:31;47.53;;;21.30;;
78187;SDS011;67456;41.872;21.602;2024-01-15T03:18:57;42.25;;;19.77;;
78187;SDS011;67456;41.872;21.602;2024-01-15T03:21:23;46.05;;;21.98;;
78187;SDS011;67456;41.872;21.602;2024-01-15T03:23:50;43.45;;;19.48;;
78187;SDS011;67456;41.872;21.602;2024-01-15T03:26:16;49.35;;;22.05;;
78187;SDS011;67456;41.872;21.602;2024-01-15T03:28:42;45.38;;;19.88;;
78187;SDS011;67456;41.872;21.602;2024-01-15T03:31:08;48.92;;;20.90;;
78187;SDS011;67456;41.872;21.602;2024-01-15T03:33:34;38.00;;;19.75;;
78187;SDS011;67456;41.872;21.602;2024-01-15T03:36:00;46.40;;;20.05;;
78187;SDS011;67456;41.872;21.602;2024-01-15T03:38:28;48.58;;;23.98;;
78187;SDS011;67456;41.872;21.602;2024-01-15T03:40:54;45.45;;;21.13;;
78187;SDS011;67456;41.872;21.602;2024-01-15T03:43:20;52.42;;;24.25;;
78187;SDS011;67456;41.872;21.602;2024-01-15T03:45:46;46.80;;;20.50;;
78187;SDS011;67456;41.872;21.602;2024-01-15T03:48:12;45.13;;;21.23;;
78187;SDS011;67456;41.872;21.602;2024-01-15T03:50:38;48.72;;;21.13;;
78187;SDS011;67456;41.872;21.602;2024-01-15T03:53:05;47.22;;;22.23;;
78187;SDS011;67456;41.872;21.602;2024-01-15T03:55:32;48.92;;;21.75;;
78187;SDS011;67456;41.872;21.602;2024-01-15T03:57:58;53.47;;;23.45;;
78187;SDS011;67456;41.872;21.602;2024-01-15T04:00:24;46.25;;;22.20;;
78187;SDS011;67456;41.872;21.602;2024-01-15T04:02:50;49.80;;;24.10;;
78187;SDS011;67456;41.872;21.602;2024-01-15T04:05:16;50.75;;;22.67;;
78187;SDS011;67456;41.872;21.602;2024-01-15T04:07:43;55.80;;;24.20;;
78187;SDS011;67456;41.872;21.602;2024-01-15T04:10:09;56.13;;;26.02;;
78187;SDS011;67456;41.872;21.602;2024-01-15T04:12:35;52.35;;;23.05;;
78187;SDS011;67456;41.872;21.602;2024-01-15T04:15:01;58.60;;;24.98;;
78187;SDS011;67456;41.872;21.602;2024-01-15T04:17:28;45.13;;;21.20;;
78187;SDS011;67456;41.872;21.602;2024-01-15T04:19:54;46.80;;;21.17;;
78187;SDS011;67456;41.872;21.602;2024-01-15T04:22:20;49.75;;;21.90;;
78187;SDS011;67456;41.872;21.602;2024-01-15T04:24:46;44.35;;;21.85;;
78187;SDS011;67456;41.872;21.602;2024-01-15T04:27:13;49.75;;;22.45;;
78187;SDS011;67456;41.872;21.602;2024-01-15T04:29:39;47.03;;;21.17;;
78187;SDS011;67456;41.872;21.602;2024-01-15T04:32:05;46.67;;;21.83;;
78187;SDS011;67456;41.872;21.602;2024-01-15T04:34:32;46.65;;;20.85;;
78187;SDS011;67456;41.872;21.602;2024-01-15T04:36:58;48.13;;;21.58;;
78187;SDS011;67456;41.872;21.602;2024-01-15T04:39:24;51.97;;;21.50;;
78187;SDS011;67456;41.872;21.602;2024-01-15T04:41:50;54.80;;;25.75;;
78187;SDS011;67456;41.872;21.602;2024-01-15T04:44:16;48.63;;;23.13;;
78187;SDS011;67456;41.872;21.602;2024-01-15T04:46:42;47.55;;;22.30;;
78187;SDS011;67456;41.872;21.602;2024-01-15T04:49:09;46.65;;;21.77;;
78187;SDS011;67456;41.872;21.602;2024-01-15T04:51:35;46.90;;;21.65;;
78187;SDS011;67456;41.872;21.602;2024-01-15T04:54:01;46.20;;;23.48;;
78187;SDS011;67456;41.872;21.602;2024-01-15T04:56:27;46.17;;;23.58;;
78187;SDS011;67456;41.872;21.602;2024-01-15T04:58:53;44.75;;;22.50;;
78187;SDS011;67456;41.872;21.602;2024-01-15T05:01:19;38.72;;;19.83;;
78187;SDS011;67456;41.872;21.602;2024-01-15T05:03:46;45.25;;;23.52;;
78187;SDS011;67456;41.872;21.602;2024-01-15T05:06:12;38.35;;;20.52;;
78187;SDS011;67456;41.872;21.602;2024-01-15T05:08:38;45.20;;;19.92;;
78187;SDS011;67456;41.872;21.602;2024-01-15T05:11:04;40.25;;;19.65;;
78187;SDS011;67456;41.872;21.602;2024-01-15T05:13:30;51.15;;;23.58;;
78187;SDS011;67456;41.872;21.602;2024-01-15T05:15:57;48.67;;;21.73;;
78187;SDS011;67456;41.872;21.602;2024-01-15T05:18:23;49.17;;;23.17;;
78187;SDS011;67456;41.872;21.602;2024-01-15T05:20:49;74.80;;;29.42;;
78187;SDS011;67456;41.872;21.602;2024-01-15T05:23:17;47.88;;;23.70;;
78187;SDS011;67456;41.872;21.602;2024-01-15T05:25:43;57.95;;;24.60;;
78187;SDS011;67456;41.872;21.602;2024-01-15T05:28:09;52.53;;;25.10;;
78187;SDS011;67456;41.872;21.602;2024-01-15T05:30:36;49.38;;;24.08;;
78187;SDS011;67456;41.872;21.602;2024-01-15T05:33:02;57.53;;;25.38;;
78187;SDS011;67456;41.872;21.602;2024-01-15T05:35:28;63.53;;;29.02;;
78187;SDS011;67456;41.872;21.602;2024-01-15T05:37:54;52.50;;;23.95;;
78187;SDS011;67456;41.872;21.602;2024-01-15T05:40:22;50.80;;;22.75;;
78187;SDS011;67456;41.872;21.602;2024-01-15T05:42:48;49.20;;;22.50;;
78187;SDS011;67456;41.872;21.602;2024-01-15T05:45:15;43.58;;;21.05;;
78187;SDS011;67456;41.872;21.602;2024-01-15T05:47:41;39.03;;;19.83;;
78187;SDS011;67456;41.872;21.602;2024-01-15T05:50:09;37.58;;;18.58;;
78187;SDS011;67456;41.872;21.602;2024-01-15T05:52:36;40.05;;;17.33;;
78187;SDS011;67456;41.872;21.602;2024-01-15T05:55:03;41.53;;;19.48;;
78187;SDS011;67456;41.872;21.602;2024-01-15T05:57:29;46.38;;;22.80;;
78187;SDS011;67456;41.872;21.602;2024-01-15T05:59:56;44.65;;;23.10;;
78187;SDS011;67456;41.872;21.602;2024-01-15T06:02:22;48.28;;;23.33;;
78187;SDS011;67456;41.872;21.602;2024-01-15T06:04:49;46.90;;;22.63;;
78187;SDS011;67456;41.872;21.602;2024-01-15T06:07:16;48.67;;;24.27;;
78187;SDS011;67456;41.872;21.602;2024-01-15T06:09:43;84.68;;;38.90;;
78187;SDS011;67456;41.872;21.602;2024-01-15T06:12:10;88.85;;;37.97;;
78187;SDS011;67456;41.872;21.602;2024-01-15T06:14:36;74.68;;;34.30;;
78187;SDS011;67456;41.872;21.602;2024-01-15T06:17:03;58.20;;;28.70;;
78187;SDS011;67456;41.872;21.602;2024-01-15T06:19:30;54.53;;;29.50;;
78187;SDS011;67456;41.872;21.602;2024-01-15T06:21:58;62.83;;;31.60;;
78187;SDS011;67456;41.872;21.602;2024-01-15T06:24:24;64.63;;;31.70;;
78187;SDS011;67456;41.872;21.602;2024-01-15T06:26:51;65.13;;;31.20;;
78187;SDS011;67456;41.872;21.602;2024-01-15T06:29:18;58.67;;;28.95;;
78187;SDS011;67456;41.872;21.602;2024-01-15T06:31:44;59.67;;;28.10;;
78187;SDS011;67456;41.872;21.602;2024-01-15T06:34:12;61.60;;;28.40;;
78187;SDS011;67456;41.872;21.602;2024-01-15T06:36:39;65.60;;;31.25;;
78187;SDS011;67456;41.872;21.602;2024-01-15T06:39:06;81.15;;;35.85;;
78187;SDS011;67456;41.872;21.602;2024-01-15T06:41:35;82.80;;;38.45;;
78187;SDS011;67456;41.872;21.602;2024-01-15T06:44:09;76.72;;;34.42;;
78187;SDS011;67456;41.872;21.602;2024-01-15T06:46:45;55.78;;;27.92;;
78187;SDS011;67456;41.872;21.602;2024-01-15T06:49:14;67.43;;;30.88;;
78187;SDS011;67456;41.872;21.602;2024-01-15T06:51:41;60.25;;;27.80;;
78187;SDS011;67456;41.872;21.602;2024-01-15T06:54:08;59.03;;;30.52;;
78187;SDS011;67456;41.872;21.602;2024-01-15T06:56:35;60.72;;;29.17;;
78187;SDS011;67456;41.872;21.602;2024-01-15T06:59:04;59.55;;;29.55;;
78187;SDS011;67456;41.872;21.602;2024-01-15T07:01:32;56.28;;;28.10;;
78187;SDS011;67456;41.872;21.602;2024-01-15T07:03:58;50.45;;;24.75;;
78187;SDS011;67456;41.872;21.602;2024-01-15T07:06:25;47.63;;;23.63;;
78187;SDS011;67456;41.872;21.602;2024-01-15T07:08:51;52.70;;;24.58;;
78187;SDS011;67456;41.872;21.602;2024-01-15T07:11:18;61.78;;;29.25;;
78187;SDS011;67456;41.872;21.602;2024-01-15T07:13:44;67.38;;;33.17;;
78187;SDS011;67456;41.872;21.602;2024-01-15T07:16:11;59.78;;;28.73;;
78187;SDS011;67456;41.872;21.602;2024-01-15T07:18:39;52.92;;;27.08;;
78187;SDS011;67456;41.872;21.602;2024-01-15T07:21:05;61.08;;;28.92;;
78187;SDS011;67456;41.872;21.602;2024-01-15T07:23:31;71.05;;;28.75;;
78187;SDS011;67456;41.872;21.602;2024-01-15T07:25:57;136.90;;;47.28;;
78187;SDS011;67456;41.872;21.602;2024-01-15T07:28:24;120.72;;;47.33;;
78187;SDS011;67456;41.872;21.602;2024-01-15T07:30:50;74.15;;;36.35;;
78187;SDS011;67456;41.872;21.602;2024-01-15T07:33:17;68.28;;;35.17;;
78187;SDS011;67456;41.872;21.602;2024-01-15T07:35:43;69.20;;;33.42;;
78187;SDS011;67456;41.872;21.602;2024-01-15T07:38:09;62.75;;;31.63;;
78187;SDS011;67456;41.872;21.602;2024-01-15T07:40:37;47.33;;;23.83;;
78187;SDS011;67456;41.872;21.602;2024-01-15T07:43:03;54.88;;;27.60;;
78187;SDS011;67456;41.872;21.602;2024-01-15T07:45:30;59.00;;;28.38;;
78187;SDS011;67456;41.872;21.602;2024-01-15T07:47:56;59.67;;;29.10;;
78187;SDS011;67456;41.872;21.602;2024-01-15T07:50:23;55.17;;;27.83;;
78187;SDS011;67456;41.872;21.602;2024-01-15T07:52:49;62.42;;;31.85;;
78187;SDS011;67456;41.872;21.602;2024-01-15T07:55:16;76.72;;;39.70;;
78187;SDS011;67456;41.872;21.602;2024-01-15T07:57:42;57.15;;;29.65;;
78187;SDS011;67456;41.872;21.602;2024-01-15T08:00:08;93.80;;;45.17;;
78187;SDS011;67456;41.872;21.602;2024-01-15T08:02:36;85.07;;;38.42;;
78187;SDS011;67456;41.872;21.602;2024-01-15T08:05:02;99.95;;;42.92;;
78187;SDS011;67456;41.872;21.602;2024-01-15T08:07:28;75.75;;;39.35;;
78187;SDS011;67456;41.872;21.602;2024-01-15T08:09:55;88.90;;;42.97;;
78187;SDS011;67456;41.872;21.602;2024-01-15T08:12:21;84.20;;;41.67;;
78187;SDS011;67456;41.872;21.602;2024-01-15T08:14:47;78.60;;;36.50;;
78187;SDS011;67456;41.872;21.602;2024-01-15T08:17:14;70.80;;;34.45;;
78187;SDS011;67456;41.872;21.602;2024-01-15T08:19:42;63.58;;;32.05;;
78187;SDS011;67456;41.872;21.602;2024-01-15T08:22:08;61.10;;;28.60;;
78187;SDS011;67456;41.872;21.602;2024-01-15T08:24:35;63.08;;;31.92;;
78187;SDS011;67456;41.872;21.602;2024-01-15T08:27:01;60.58;;;31.00;;
78187;SDS011;67456;41.872;21.602;2024-01-15T08:29:29;62.25;;;30.95;;
78187;SDS011;67456;41.872;21.602;2024-01-15T08:31:58;78.18;;;35.97;;
78187;SDS011;67456;41.872;21.602;2024-01-15T08:34:26;70.75;;;34.20;;
78187;SDS011;67456;41.872;21.602;2024-01-15T08:36:52;74.50;;;37.47;;
78187;SDS011;67456;41.872;21.602;2024-01-15T08:39:19;72.60;;;35.78;;
78187;SDS011;67456;41.872;21.602;2024-01-15T08:41:45;69.07;;;37.63;;
78187;SDS011;67456;41.872;21.602;2024-01-15T08:44:12;78.38;;;38.35;;
78187;SDS011;67456;41.872;21.602;2024-01-15T08:46:38;71.93;;;37.15;;
78187;SDS011;67456;41.872;21.602;2024-01-15T08:49:04;70.93;;;36.88;;
78187;SDS011;67456;41.872;21.602;2024-01-15T08:51:31;71.55;;;35.17;;
78187;SDS011;67456;41.872;21.602;2024-01-15T08:53:58;71.75;;;37.15;;
78187;SDS011;67456;41.872;21.602;2024-01-15T08:56:25;72.82;;;37.60;;
78187;SDS011;67456;41.872;21.602;2024-01-15T08:58:52;73.50;;;36.83;;
78187;SDS011;67456;41.872;21.602;2024-01-15T09:01:21;68.18;;;37.17;;
78187;SDS011;67456;41.872;21.602;2024-01-15T09:03:49;75.45;;;37.72;;
78187;SDS011;67456;41.872;21.602;2024-01-15T09:06:19;65.00;;;36.25;;
78187;SDS011;67456;41.872;21.602;2024-01-15T09:08:45;59.92;;;33.08;;
78187;SDS011;67456;41.872;21.602;2024-01-15T09:11:12;65.82;;;35.88;;
78187;SDS011;67456;41.872;21.602;2024-01-15T09:13:38;58.15;;;31.73;;
78187;SDS011;67456;41.872;21.602;2024-01-15T09:16:05;57.13;;;30.10;;
78187;SDS011;67456;41.872;21.602;2024-01-15T09:18:31;62.45;;;36.90;;
78187;SDS011;67456;41.872;21.602;2024-01-15T09:20:57;61.00;;;35.28;;
78187;SDS011;67456;41.872;21.602;2024-01-15T09:23:24;80.10;;;41.53;;
78187;SDS011;67456;41.872;21.602;2024-01-15T09:25:50;72.63;;;39.90;;
78187;SDS011;67456;41.872;21.602;2024-01-15T09:28:17;70.90;;;39.42;;
78187;SDS011;67456;41.872;21.602;2024-01-15T09:30:44;60.97;;;35.35;;
78187;SDS011;67456;41.872;21.602;2024-01-15T09:33:10;68.72;;;38.95;;
78187;SDS011;67456;41.872;21.602;2024-01-15T09:35:36;77.10;;;39.92;;
78187;SDS011;67456;41.872;21.602;2024-01-15T09:38:03;65.80;;;35.38;;
78187;SDS011;67456;41.872;21.602;2024-01-15T09:40:31;57.00;;;32.53;;
78187;SDS011;67456;41.872;21.602;2024-01-15T09:43:00;60.13;;;33.88;;
78187;SDS011;67456;41.872;21.602;2024-01-15T09:45:28;65.03;;;35.42;;
78187;SDS011;67456;41.872;21.602;2024-01-15T09:47:54;71.47;;;39.90;;
78187;SDS011;67456;41.872;21.602;2024-01-15T09:50:20;65.82;;;35.47;;
78187;SDS011;67456;41.872;21.602;2024-01-15T09:52:46;64.03;;;34.65;;
78187;SDS011;67456;41.872;21.602;2024-01-15T09:55:13;67.95;;;37.78;;
78187;SDS011;67456;41.872;21.602;2024-01-15T09:57:41;61.72;;;34.95;;
78187;SDS011;67456;41.872;21.602;2024-01-15T10:00:08;84.05;;;42.92;;
78187;SDS011;67456;41.872;21.602;2024-01-15T10:02:36;67.38;;;36.45;;
78187;SDS011;67456;41.872;21.602;2024-01-15T10:05:02;65.05;;;36.13;;
78187;SDS011;67456;41.872;21.602;2024-01-15T10:07:28;60.28;;;32.83;;
78187;SDS011;67456;41.872;21.602;2024-01-15T10:09:55;54.90;;;32.33;;
78187;SDS011;67456;41.872;21.602;2024-01-15T10:12:21;70.32;;;35.50;;
78187;SDS011;67456;41.872;21.602;2024-01-15T10:14:48;74.65;;;37.92;;
78187;SDS011;67456;41.872;21.602;2024-01-15T10:17:15;70.03;;;36.78;;
78187;SDS011;67456;41.872;21.602;2024-01-15T10:19:42;79.03;;;43.70;;
78187;SDS011;67456;41.872;21.602;2024-01-15T10:22:09;76.32;;;43.20;;
78187;SDS011;67456;41.872;21.602;2024-01-15T10:24:36;70.55;;;43.03;;
78187;SDS011;67456;41.872;21.602;2024-01-15T10:27:09;70.28;;;40.53;;
78187;SDS011;67456;41.872;21.602;2024-01-15T10:29:36;72.45;;;42.15;;
78187;SDS011;67456;41.872;21.602;2024-01-15T10:32:03;77.90;;;42.15;;
78187;SDS011;67456;41.872;21.602;2024-01-15T10:34:32;69.45;;;40.20;;
78187;SDS011;67456;41.872;21.602;2024-01-15T10:36:58;70.55;;;40.70;;
78187;SDS011;67456;41.872;21.602;2024-01-15T10:39:24;66.15;;;36.85;;
78187;SDS011;67456;41.872;21.602;2024-01-15T10:41:50;72.45;;;41.83;;
78187;SDS011;67456;41.872;21.602;2024-01-15T10:44:17;78.13;;;43.55;;
78187;SDS011;67456;41.872;21.602;2024-01-15T10:46:45;73.72;;;42.45;;
78187;SDS011;67456;41.872;21.602;2024-01-15T10:49:12;72.78;;;43.22;;
78187;SDS011;67456;41.872;21.602;2024-01-15T10:51:38;81.10;;;46.35;;
78187;SDS011;67456;41.872;21.602;2024-01-15T10:54:04;83.07;;;45.67;;
78187;SDS011;67456;41.872;21.602;2024-01-15T10:56:33;93.75;;;50.35;;
78187;SDS011;67456;41.872;21.602;2024-01-15T10:59:00;86.20;;;47.75;;
78187;SDS011;67456;41.872;21.602;2024-01-15T11:01:28;88.53;;;47.63;;
78187;SDS011;67456;41.872;21.602;2024-01-15T11:03:54;83.65;;;43.90;;
78187;SDS011;67456;41.872;21.602;2024-01-15T11:06:23;86.32;;;43.92;;
78187;SDS011;67456;41.872;21.602;2024-01-15T11:08:50;80.63;;;43.15;;
78187;SDS011;67456;41.872;21.602;2024-01-15T11:11:17;88.03;;;44.65;;
78187;SDS011;67456;41.872;21.602;2024-01-15T11:13:46;83.07;;;42.53;;
78187;SDS011;67456;41.872;21.602;2024-01-15T11:16:15;83.90;;;42.75;;
78187;SDS011;67456;41.872;21.602;2024-01-15T11:18:42;83.60;;;44.60;;
78187;SDS011;67456;41.872;21.602;2024-01-15T11:23:48;84.80;;;46.60;;
78187;SDS011;67456;41.872;21.602;2024-01-15T11:26:34;83.70;;;44.47;;
78187;SDS011;67456;41.872;21.602;2024-01-15T11:31:57;90.07;;;47.40;;
78187;SDS011;67456;41.872;21.602;2024-01-15T11:34:16;88.80;;;46.63;;
78187;SDS011;67456;41.872;21.602;2024-01-15T11:42:03;92.72;;;49.13;;
78187;SDS011;67456;41.872;21.602;2024-01-15T11:44:29;79.93;;;44.35;;
78187;SDS011;67456;41.872;21.602;2024-01-15T11:47:02;83.05;;;43.35;;
78187;SDS011;67456;41.872;21.602;2024-01-15T11:51:55;92.45;;;47.13;;
78187;SDS011;67456;41.872;21.602;2024-01-15T11:54:21;91.00;;;47.53;;
78187;SDS011;67456;41.872;21.602;2024-01-15T11:56:48;93.25;;;46.58;;
78187;SDS011;67456;41.872;21.602;2024-01-15T11:59:15;90.25;;;47.53;;
78187;SDS011;67456;41.872;21.602;2024-01-15T12:01:41;99.20;;;50.03;;
78187;SDS011;67456;41.872;21.602;2024-01-15T12:04:08;86.97;;;46.80;;
78187;SDS011;67456;41.872;21.602;2024-01-15T12:06:34;92.35;;;46.75;;
78187;SDS011;67456;41.872;21.602;2024-01-15T12:09:07;85.97;;;43.58;;
78187;SDS011;67456;41.872;21.602;2024-01-15T12:11:34;90.30;;;45.00;;
78187;SDS011;67456;41.872;21.602;2024-01-15T12:14:02;97.18;;;48.25;;
78187;SDS011;67456;41.872;21.602;2024-01-15T12:16:28;95.50;;;48.55;;
78187;SDS011;67456;41.872;21.602;2024-01-15T12:18:54;92.03;;;46.08;;
78187;SDS011;67456;41.872;21.602;2024-01-15T12:21:21;89.00;;;46.38;;
78187;SDS011;67456;41.872;21.602;2024-01-15T12:23:47;87.03;;;44.90;;
78187;SDS011;67456;41.872;21.602;2024-01-15T12:26:13;97.10;;;49.55;;
78187;SDS011;67456;41.872;21.602;2024-01-15T12:28:40;94.10;;;48.42;;
78187;SDS011;67456;41.872;21.602;2024-01-15T12:31:06;92.25;;;46.55;;
78187;SDS011;67456;41.872;21.602;2024-01-15T12:33:33;96.93;;;50.42;;
78187;SDS011;67456;41.872;21.602;2024-01-15T12:35:59;107.47;;;54.72;;
78187;SDS011;67456;41.872;21.602;2024-01-15T12:38:25;94.97;;;48.50;;
78187;SDS011;67456;41.872;21.602;2024-01-15T12:40:54;94.15;;;51.22;;
78187;SDS011;67456;41.872;21.602;2024-01-15T12:43:20;87.60;;;47.60;;
78187;SDS011;67456;41.872;21.602;2024-01-15T12:45:46;86.53;;;45.10;;
78187;SDS011;67456;41.872;21.602;2024-01-15T12:48:12;82.05;;;44.15;;
78187;SDS011;67456;41.872;21.602;2024-01-15T12:50:42;85.95;;;43.22;;
78187;SDS011;67456;41.872;21.602;2024-01-15T12:53:09;93.35;;;47.85;;
78187;SDS011;67456;41.872;21.602;2024-01-15T12:55:35;116.60;;;57.45;;
78187;SDS011;67456;41.872;21.602;2024-01-15T12:58:01;106.95;;;53.35;;
78187;SDS011;67456;41.872;21.602;2024-01-15T13:00:31;98.35;;;51.90;;
78187;SDS011;67456;41.872;21.602;2024-01-15T13:02:58;105.45;;;53.67;;
78187;SDS011;67456;41.872;21.602;2024-01-15T13:07:56;102.25;;;53.50;;
78187;SDS011;67456;41.872;21.602;2024-01-15T13:10:25;99.13;;;52.17;;
78187;SDS011;67456;41.872;21.602;2024-01-15T13:15:23;91.65;;;45.85;;
78187;SDS011;67456;41.872;21.602;2024-01-15T13:17:51;92.38;;;46.42;;
78187;SDS011;67456;41.872;21.602;2024-01-15T13:20:24;103.38;;;53.15;;
78187;SDS011;67456;41.872;21.602;2024-01-15T13:22:51;108.93;;;55.22;;
78187;SDS011;67456;41.872;21.602;2024-01-15T13:25:19;82.53;;;42.38;;
78187;SDS011;67456;41.872;21.602;2024-01-15T13:27:46;70.10;;;38.95;;
78187;SDS011;67456;41.872;21.602;2024-01-15T13:30:13;78.85;;;40.50;;
78187;SDS011;67456;41.872;21.602;2024-01-15T13:32:46;83.47;;;41.78;;
78187;SDS011;67456;41.872;21.602;2024-01-15T13:35:19;77.82;;;40.17;;
78187;SDS011;67456;41.872;21.602;2024-01-15T13:37:48;66.28;;;31.95;;
78187;SDS011;67456;41.872;21.602;2024-01-15T13:40:15;55.53;;;28.70;;
78187;SDS011;67456;41.872;21.602;2024-01-15T13:42:46;68.63;;;35.03;;
78187;SDS011;67456;41.872;21.602;2024-01-15T13:45:13;78.60;;;37.13;;
78187;SDS011;67456;41.872;21.602;2024-01-15T13:47:40;71.57;;;36.35;;
78187;SDS011;67456;41.872;21.602;2024-01-15T13:50:09;66.95;;;35.20;;
78187;SDS011;67456;41.872;21.602;2024-01-15T13:52:35;67.22;;;35.97;;
78187;SDS011;67456;41.872;21.602;2024-01-15T13:55:02;67.45;;;34.65;;
78187;SDS011;67456;41.872;21.602;2024-01-15T13:57:28;58.20;;;32.70;;
78187;SDS011;67456;41.872;21.602;2024-01-15T13:59:56;64.22;;;32.50;;
78187;SDS011;67456;41.872;21.602;2024-01-15T14:02:22;59.83;;;31.48;;
78187;SDS011;67456;41.872;21.602;2024-01-15T14:04:48;61.30;;;30.75;;
78187;SDS011;67456;41.872;21.602;2024-01-15T14:07:15;61.28;;;32.15;;
78187;SDS011;67456;41.872;21.602;2024-01-15T14:09:41;64.82;;;33.17;;
78187;SDS011;67456;41.872;21.602;2024-01-15T14:12:07;67.93;;;33.40;;
78187;SDS011;67456;41.872;21.602;2024-01-15T14:14:33;67.03;;;34.67;;
78187;SDS011;67456;41.872;21.602;2024-01-15T14:17:00;61.38;;;32.35;;
78187;SDS011;67456;41.872;21.602;2024-01-15T14:19:26;64.43;;;33.60;;
78187;SDS011;67456;41.872;21.602;2024-01-15T14:21:53;66.88;;;37.03;;
78187;SDS011;67456;41.872;21.602;2024-01-15T14:24:19;64.13;;;34.42;;